Time;durP1;ratioP1;P1;durP2;ratioP2;P2;SDS_P1;SDS_P2;PMS_P1;PMS_P2;Temp;Humidity;BMP_temperature;BMP_pressure;BME280_temperature;BME280_humidity;BME280_pressure;Samples;Min_cycle;Max_cycle;Signal;HPM_P1;HPM_P2
2022/10/08 00:01:53;;;;;;;14.07;9.38;;;14.50;99.90;;;;;;5012224;28;20029;-59
2022/10/08 00:04:39;;;;;;;9.82;8.15;;;14.40;99.90;;;;;;5011259;28;20032;-60
2022/10/08 00:07:25;;;;;;;9.07;8.10;;;14.50;99.90;;;;;;5007465;28;20065;-58
2022/10/08 00:10:11;;;;;;;11.30;8.48;;;14.40;99.90;;;;;;4991813;28;20516;-60
2022/10/08 00:12:58;;;;;;;11.40;8.93;;;14.40;99.90;;;;;;4991494;28;20038;-59
2022/10/08 00:15:44;;;;;;;12.30;8.18;;;14.30;99.90;;;;;;4991188;28;20089;-61
2022/10/08 00:18:30;;;;;;;9.40;8.43;;;14.30;99.90;;;;;;4992494;28;20062;-60
2022/10/08 00:21:28;;;;;;;10.73;8.48;;;14.30;99.90;;;;;;4997821;28;20041;-61
2022/10/08 00:24:16;;;;;;;10.18;7.70;;;14.30;99.90;;;;;;5015416;28;20029;-57
2022/10/08 00:27:02;;;;;;;11.27;8.95;;;14.30;99.90;;;;;;5015757;28;20030;-59
2022/10/08 00:29:49;;;;;;;16.42;9.75;;;14.20;99.90;;;;;;5015151;28;20033;-59
2022/10/08 00:32:34;;;;;;;12.40;8.90;;;14.10;99.90;;;;;;5001774;28;20069;-59
2022/10/08 00:35:20;;;;;;;10.32;8.88;;;14.10;99.90;;;;;;5015652;28;20033;-60
2022/10/08 00:38:06;;;;;;;10.27;8.38;;;14.20;99.90;;;;;;5015414;28;20030;-57
2022/10/08 00:40:52;;;;;;;11.18;9.02;;;14.10;99.90;;;;;;5014202;28;20117;-58
2022/10/08 00:43:50;;;;;;;8.63;7.78;;;14.10;99.90;;;;;;5014932;28;20030;-59
2022/10/08 00:46:42;;;;;;;10.07;8.00;;;14.20;99.90;;;;;;5001509;28;20030;-59
2022/10/08 00:49:28;;;;;;;10.85;8.32;;;14.10;99.90;;;;;;5014586;28;20036;-59
2022/10/08 00:52:15;;;;;;;11.10;9.27;;;14.10;99.90;;;;;;5013193;28;20529;-59
2022/10/08 00:55:05;;;;;;;10.52;8.70;;;14.00;99.90;;;;;;5011883;28;20413;-58
2022/10/08 00:57:52;;;;;;;13.88;9.98;;;13.90;99.90;;;;;;5017288;28;20079;-60
2022/10/08 01:00:38;;;;;;;11.70;8.32;;;13.90;99.90;;;;;;4998925;28;20030;-59
2022/10/08 01:03:23;;;;;;;10.27;8.15;;;13.90;99.90;;;;;;4998823;28;20088;-59
2022/10/08 01:06:25;;;;;;;11.07;7.78;;;14.00;99.90;;;;;;5015122;28;20030;-60
2022/10/08 01:09:36;;;;;;;10.70;8.65;;;14.00;99.90;;;;;;5001650;28;20030;-55
2022/10/08 01:13:10;;;;;;;10.68;8.80;;;14.00;99.90;;;;;;5007867;28;20510;-59
2022/10/08 01:16:27;;;;;;;10.70;8.65;;;14.00;99.90;;;;;;4928647;29;20478;-60
2022/10/08 01:19:22;;;;;;;11.50;9.10;;;13.90;99.90;;;;;;5010541;28;20108;-61
2022/10/08 01:22:38;;;;;;;13.85;9.00;;;13.80;99.90;;;;;;5017212;28;20104;-59
2022/10/08 01:25:34;;;;;;;;;;;13.90;99.90;;;;;;5011442;28;20030;-55
2022/10/08 01:28:41;;;;;;;9.98;7.97;;;13.90;99.90;;;;;;5009588;28;19909;-59
2022/10/08 01:31:31;;;;;;;8.88;7.70;;;13.90;99.90;;;;;;5012907;28;20036;-55
2022/10/08 01:34:23;;;;;;;10.32;8.20;;;13.90;99.90;;;;;;5008356;28;20033;-59
2022/10/08 01:37:15;;;;;;;10.48;8.40;;;13.90;99.90;;;;;;5002719;28;20030;-56
2022/10/08 01:40:08;;;;;;;10.95;8.38;;;13.90;99.90;;;;;;4999840;28;20022;-59
2022/10/08 01:42:57;;;;;;;9.63;7.75;;;13.90;99.90;;;;;;5010333;28;20030;-56
2022/10/08 01:45:50;;;;;;;11.73;8.65;;;13.90;99.90;;;;;;5016119;28;20018;-57
2022/10/08 01:48:40;;;;;;;10.18;8.02;;;13.90;99.90;;;;;;5008849;28;20018;-55
2022/10/08 01:51:31;;;;;;;15.48;9.18;;;13.80;99.90;;;;;;5013989;28;20561;-60
2022/10/08 01:54:19;;;;;;;10.88;8.60;;;13.80;99.90;;;;;;5013722;28;20052;-57
2022/10/08 01:57:08;;;;;;;11.57;9.07;;;13.80;99.90;;;;;;4999529;28;20026;-59
2022/10/08 02:00:00;;;;;;;11.43;8.65;;;13.70;99.90;;;;;;5013693;28;20393;-60
2022/10/08 02:02:46;;;;;;;10.73;8.40;;;13.70;99.90;;;;;;5011546;28;20028;-57
2022/10/08 02:05:36;;;;;;;11.73;8.00;;;13.60;99.90;;;;;;5011801;28;20049;-58
2022/10/08 02:08:22;;;;;;;9.35;7.90;;;13.70;99.90;;;;;;5010060;28;20517;-55
2022/10/08 02:11:08;;;;;;;15.75;9.15;;;13.70;99.90;;;;;;4994129;28;20023;-59
2022/10/08 02:13:54;;;;;;;11.68;8.30;;;13.70;99.90;;;;;;4993763;28;20038;-59
2022/10/08 02:16:50;;;;;;;13.48;8.52;;;13.70;99.90;;;;;;4993193;28;20038;-56
2022/10/08 02:19:48;;;;;;;13.10;9.20;;;13.80;99.90;;;;;;4993341;28;20030;-54
2022/10/08 02:22:42;;;;;;;13.45;10.18;;;13.80;99.90;;;;;;4993690;28;20022;-58
2022/10/08 02:25:37;;;;;;;12.25;9.00;;;13.80;99.90;;;;;;4993422;28;20155;-57
2022/10/08 02:28:54;;;;;;;9.52;8.25;;;13.80;99.90;;;;;;4979557;28;20094;-56
2022/10/08 02:31:48;;;;;;;9.30;8.30;;;13.80;99.90;;;;;;5000173;28;20023;-58
2022/10/08 02:34:45;;;;;;;9.70;8.10;;;13.80;99.90;;;;;;4993016;28;20551;-56
2022/10/08 02:37:44;;;;;;;10.63;8.75;;;13.80;99.90;;;;;;4993304;28;20509;-57
2022/10/08 02:40:32;;;;;;;13.40;8.73;;;13.80;99.90;;;;;;4993319;28;20027;-58
2022/10/08 02:43:24;;;;;;;10.60;8.30;;;13.80;99.90;;;;;;4993827;28;20038;-56
2022/10/08 02:46:19;;;;;;;9.80;8.27;;;13.70;99.90;;;;;;4995027;28;20030;-60
2022/10/08 02:49:05;;;;;;;;;;;13.70;99.90;;;;;;4994725;28;20037;-57
2022/10/08 02:51:52;;;;;;;;;;;13.70;99.90;;;;;;4993785;28;20295;-57
2022/10/08 02:54:42;;;;;;;8.65;7.82;;;13.60;99.90;;;;;;4993996;28;19910;-58
2022/10/08 02:57:38;;;;;;;7.85;7.05;;;13.60;99.90;;;;;;4992855;28;20044;-59
2022/10/08 03:00:26;;;;;;;7.88;7.13;;;13.60;99.90;;;;;;4992825;28;20760;-56
2022/10/08 03:03:22;;;;;;;9.52;7.32;;;13.60;99.90;;;;;;4992726;28;20034;-56
2022/10/08 03:06:11;;;;;;;8.45;7.53;;;13.60;99.90;;;;;;4993305;28;20023;-57
2022/10/08 03:08:59;;;;;;;9.50;7.60;;;13.60;99.90;;;;;;4993673;28;20101;-59
2022/10/08 03:11:45;;;;;;;10.13;7.68;;;13.60;99.90;;;;;;4979013;28;20032;-57
2022/10/08 03:14:38;;;;;;;10.40;7.93;;;13.50;99.90;;;;;;4992699;28;20022;-58
2022/10/08 03:17:31;;;;;;;8.13;7.32;;;13.50;99.90;;;;;;4979189;28;20022;-59
2022/10/08 03:20:18;;;;;;;10.10;7.70;;;13.50;99.90;;;;;;4992153;28;20082;-61
2022/10/08 03:23:04;;;;;;;10.32;7.32;;;13.50;99.90;;;;;;4991760;28;20026;-59
2022/10/08 03:25:50;;;;;;;10.85;8.23;;;13.50;99.90;;;;;;4992272;28;20034;-60
2022/10/08 03:28:35;;;;;;;9.73;8.73;;;13.40;99.90;;;;;;4992008;28;20058;-60
2022/10/08 03:31:21;;;;;;;12.15;9.57;;;13.30;99.90;;;;;;4992659;28;20030;-56
2022/10/08 03:34:08;;;;;;;10.85;8.57;;;13.20;99.90;;;;;;4992177;28;20026;-55
2022/10/08 03:36:54;;;;;;;10.45;8.93;;;13.10;99.90;;;;;;4992793;28;20490;-61
2022/10/08 03:39:41;;;;;;;14.88;9.45;;;13.10;99.90;;;;;;4992197;28;20511;-58
2022/10/08 03:42:27;;;;;;;13.82;9.38;;;13.10;99.90;;;;;;4978583;28;20494;-53
2022/10/08 03:45:13;;;;;;;14.55;11.15;;;13.10;99.90;;;;;;4977549;28;20414;-58
2022/10/08 03:47:59;;;;;;;12.02;10.77;;;13.10;99.90;;;;;;4993005;28;20027;-58
2022/10/08 03:51:14;;;;;;;11.57;10.38;;;13.10;99.90;;;;;;4992514;28;20494;-55
2022/10/08 03:54:00;;;;;;;10.40;9.33;;;13.10;99.90;;;;;;4993248;28;20450;-59
2022/10/08 03:56:46;;;;;;;14.38;11.02;;;13.10;99.90;;;;;;4994109;28;20547;-56
2022/10/08 03:59:32;;;;;;;11.70;10.57;;;13.10;99.90;;;;;;4996612;28;20030;-58
2022/10/08 04:02:18;;;;;;;14.07;9.93;;;13.10;99.90;;;;;;4995370;28;20046;-56
2022/10/08 04:05:04;;;;;;;12.23;10.27;;;13.00;99.90;;;;;;4995326;28;20030;-59
2022/10/08 04:07:50;;;;;;;14.95;10.25;;;13.00;99.90;;;;;;4984331;28;20077;-53
2022/10/08 04:10:37;;;;;;;12.50;11.18;;;13.00;99.90;;;;;;5014555;28;20026;-59
2022/10/08 04:13:23;;;;;;;13.25;10.05;;;12.90;99.90;;;;;;5014121;28;20026;-59
2022/10/08 04:16:16;;;;;;;13.07;11.38;;;13.00;99.90;;;;;;4999799;28;20030;-61
2022/10/08 04:19:02;;;;;;;13.10;11.07;;;13.00;99.90;;;;;;5014887;28;20041;-55
2022/10/08 04:21:48;;;;;;;14.23;11.10;;;12.80;99.90;;;;;;5001096;28;20501;-55
2022/10/08 04:24:34;;;;;;;15.90;11.07;;;12.70;99.90;;;;;;5014774;28;20026;-55
2022/10/08 04:27:20;;;;;;;12.02;9.98;;;12.60;99.90;;;;;;5014566;28;20052;-58
2022/10/08 04:30:06;;;;;;;14.20;10.68;;;12.50;99.90;;;;;;5013512;28;20030;-61
2022/10/08 04:32:52;;;;;;;15.50;11.20;;;12.40;99.90;;;;;;4999782;28;20038;-57
2022/10/08 04:35:38;;;;;;;13.32;10.88;;;12.40;99.90;;;;;;5013854;28;20450;-55
2022/10/08 04:38:24;;;;;;;16.10;12.35;;;12.50;99.90;;;;;;4999554;28;20494;-56
2022/10/08 04:41:16;;;;;;;13.98;12.20;;;12.40;99.90;;;;;;4999527;28;20041;-56
2022/10/08 04:44:02;;;;;;;15.15;12.10;;;12.30;99.90;;;;;;5012992;28;20030;-59
2022/10/08 04:46:48;;;;;;;17.27;12.82;;;12.30;99.90;;;;;;5013262;28;20097;-58
2022/10/08 04:49:34;;;;;;;17.92;12.68;;;12.30;99.90;;;;;;4998666;28;20410;-58
2022/10/08 04:52:20;;;;;;;14.93;11.52;;;12.30;99.90;;;;;;5000479;28;20459;-61
2022/10/08 04:55:07;;;;;;;19.05;12.60;;;12.20;99.90;;;;;;5013779;28;20033;-61
2022/10/08 04:57:52;;;;;;;15.18;11.75;;;12.00;99.90;;;;;;4999059;28;20061;-59
2022/10/08 05:00:38;;;;;;;20.42;13.88;;;12.10;99.90;;;;;;5013388;28;20124;-58
2022/10/08 05:03:24;;;;;;;14.65;12.18;;;11.90;99.90;;;;;;4973991;28;1165033;-60
2022/10/08 05:06:11;;;;;;;20.48;13.38;;;11.90;99.90;;;;;;5000424;28;20445;-60
2022/10/08 05:09:01;;;;;;;16.20;13.18;;;12.00;99.90;;;;;;5015171;28;20054;-61
2022/10/08 05:11:50;;;;;;;20.38;12.90;;;12.00;99.90;;;;;;5014020;28;20354;-59
2022/10/08 05:14:36;;;;;;;16.15;12.60;;;11.90;99.90;;;;;;5014727;28;20025;-60
2022/10/08 05:17:21;;;;;;;17.58;13.15;;;11.90;99.90;;;;;;5014916;28;20026;-56
2022/10/08 05:20:07;;;;;;;16.17;12.60;;;12.00;99.90;;;;;;5014165;28;20026;-58
2022/10/08 05:22:53;;;;;;;15.75;12.38;;;12.20;99.90;;;;;;5010474;28;20056;-57
2022/10/08 05:25:39;;;;;;;18.23;12.85;;;12.20;99.90;;;;;;5010886;28;20030;-58
2022/10/08 05:28:25;;;;;;;19.85;13.25;;;12.20;99.90;;;;;;5007091;28;20030;-59
2022/10/08 05:31:12;;;;;;;20.20;13.02;;;12.20;99.90;;;;;;5013970;28;20128;-63
2022/10/08 05:33:58;;;;;;;17.92;12.82;;;12.10;99.90;;;;;;5015016;28;20112;-60
2022/10/08 05:36:44;;;;;;;17.80;13.07;;;12.10;99.90;;;;;;5015138;28;20026;-60
2022/10/08 05:39:30;;;;;;;16.90;12.38;;;12.20;99.90;;;;;;4999832;28;20045;-59
2022/10/08 05:42:16;;;;;;;20.75;12.10;;;12.10;99.90;;;;;;5014553;28;20038;-61
2022/10/08 05:45:03;;;;;;;20.02;12.50;;;12.20;99.90;;;;;;5014569;28;20026;-59
2022/10/08 05:47:49;;;;;;;18.70;12.38;;;12.10;99.90;;;;;;5014389;28;20053;-54
2022/10/08 05:50:35;;;;;;;16.63;12.15;;;12.10;99.90;;;;;;4999869;28;20498;-59
2022/10/08 05:53:21;;;;;;;18.45;12.07;;;12.20;99.90;;;;;;5015443;28;20033;-58
2022/10/08 05:56:10;;;;;;;16.52;12.13;;;12.20;99.90;;;;;;5019124;28;20038;-55
2022/10/08 05:58:56;;;;;;;17.00;12.65;;;12.20;99.90;;;;;;5014472;28;20069;-59
2022/10/08 06:01:42;;;;;;;20.98;13.20;;;12.20;99.90;;;;;;5012326;28;20406;-59
2022/10/08 06:04:28;;;;;;;14.32;11.70;;;12.30;99.90;;;;;;5017611;28;20037;-60
2022/10/08 06:07:14;;;;;;;15.32;12.00;;;12.40;99.90;;;;;;5013948;28;20065;-61
2022/10/08 06:10:00;;;;;;;16.92;12.18;;;12.40;99.90;;;;;;5013505;28;20026;-59
2022/10/08 06:12:47;;;;;;;15.48;12.07;;;12.40;99.90;;;;;;5013799;28;20037;-59
2022/10/08 06:15:33;;;;;;;17.92;12.50;;;12.40;99.90;;;;;;5012809;28;20026;-60
2022/10/08 06:18:19;;;;;;;16.40;11.77;;;12.40;99.90;;;;;;5013178;28;20045;-60
2022/10/08 06:21:15;;;;;;;20.60;11.63;;;12.40;99.90;;;;;;5012596;28;20030;-61
2022/10/08 06:24:04;;;;;;;22.02;11.35;;;12.60;99.90;;;;;;4999108;28;20026;-60
2022/10/08 06:26:50;;;;;;;15.85;11.63;;;12.50;99.90;;;;;;5014645;28;20064;-57
2022/10/08 06:29:36;;;;;;;18.58;11.32;;;12.40;99.90;;;;;;5013211;28;20057;-58
2022/10/08 06:32:22;;;;;;;18.23;10.98;;;12.50;99.90;;;;;;5003663;28;20037;-58
2022/10/08 06:35:08;;;;;;;18.48;11.07;;;12.50;99.90;;;;;;5014115;28;20061;-59
2022/10/08 06:37:54;;;;;;;18.35;11.77;;;12.70;99.90;;;;;;5013814;28;20033;-59
2022/10/08 06:40:40;;;;;;;15.90;10.32;;;12.60;99.90;;;;;;5012910;28;20022;-57
2022/10/08 06:43:26;;;;;;;16.95;11.10;;;12.60;99.90;;;;;;5013643;28;20509;-61
2022/10/08 06:46:12;;;;;;;13.30;10.15;;;12.60;99.90;;;;;;4998884;28;20101;-59
2022/10/08 06:49:00;;;;;;;13.77;10.30;;;12.60;99.90;;;;;;5026316;28;20083;-61
2022/10/08 06:51:45;;;;;;;15.40;9.75;;;12.60;99.90;;;;;;5031448;28;20029;-58
2022/10/08 06:54:31;;;;;;;14.57;9.70;;;12.60;99.90;;;;;;5031873;28;20024;-65
2022/10/08 06:57:17;;;;;;;13.35;8.90;;;12.70;99.90;;;;;;5018240;28;20494;-61
2022/10/08 07:00:04;;;;;;;13.60;9.57;;;12.70;99.90;;;;;;5031712;28;20400;-60
2022/10/08 07:02:50;;;;;;;12.85;8.45;;;12.70;99.90;;;;;;5022595;28;20026;-59
2022/10/08 07:05:36;;;;;;;10.70;8.50;;;12.70;99.90;;;;;;4993721;28;20037;-58
2022/10/08 07:08:22;;;;;;;13.93;9.45;;;12.70;99.90;;;;;;5013023;28;20030;-59
2022/10/08 07:11:11;;;;;;;16.45;9.60;;;12.70;99.90;;;;;;4988868;28;20053;-57
2022/10/08 07:13:57;;;;;;;25.80;10.00;;;12.70;99.90;;;;;;5012732;28;20049;-59
2022/10/08 07:16:43;;;;;;;18.27;10.82;;;12.80;99.90;;;;;;5012929;28;20030;-56
2022/10/08 07:19:29;;;;;;;16.42;9.73;;;12.90;99.90;;;;;;4998031;28;20501;-58
2022/10/08 07:22:15;;;;;;;14.85;9.95;;;12.90;99.90;;;;;;4997799;28;20049;-58
2022/10/08 07:25:01;;;;;;;15.85;9.55;;;12.90;99.90;;;;;;5011862;28;20031;-57
2022/10/08 07:27:47;;;;;;;13.68;9.80;;;12.90;99.90;;;;;;4998163;28;20026;-59
2022/10/08 07:30:35;;;;;;;14.77;9.07;;;12.90;99.90;;;;;;4997578;28;20117;-56
2022/10/08 07:33:21;;;;;;;18.63;9.73;;;13.00;99.90;;;;;;4998326;28;20391;-62
2022/10/08 07:36:13;;;;;;;13.15;8.70;;;13.10;99.90;;;;;;5011602;28;20026;-59
2022/10/08 07:39:01;;;;;;;18.15;9.25;;;13.20;99.90;;;;;;5012921;28;20042;-57
2022/10/08 07:41:48;;;;;;;14.32;8.00;;;13.20;99.90;;;;;;5013281;28;20133;-57
2022/10/08 07:44:34;;;;;;;12.18;8.70;;;13.20;99.90;;;;;;5012861;28;20026;-62
2022/10/08 07:47:20;;;;;;;16.17;7.95;;;13.20;99.90;;;;;;4999200;28;20103;-56
2022/10/08 07:50:06;;;;;;;10.95;6.97;;;13.20;99.90;;;;;;4992164;28;20030;-63
2022/10/08 07:52:52;;;;;;;16.63;7.10;;;13.30;99.90;;;;;;4991870;28;20041;-54
2022/10/08 07:55:38;;;;;;;12.43;6.18;;;13.40;99.90;;;;;;4993214;28;20518;-56
2022/10/08 07:58:24;;;;;;;12.20;5.90;;;13.50;99.90;;;;;;4992883;28;20054;-58
2022/10/08 08:01:22;;;;;;;15.38;7.40;;;13.60;99.90;;;;;;4991989;28;20054;-60
2022/10/08 08:04:09;;;;;;;16.08;6.45;;;13.60;99.90;;;;;;4992795;28;20034;-58
2022/10/08 08:06:55;;;;;;;15.00;6.03;;;13.50;99.90;;;;;;5009672;28;20157;-60
2022/10/08 08:09:41;;;;;;;12.43;5.68;;;13.70;99.90;;;;;;4996427;28;20048;-58
2022/10/08 08:12:27;;;;;;;11.70;6.05;;;13.70;99.90;;;;;;5008834;28;20493;-60
2022/10/08 08:15:22;;;;;;;14.43;6.10;;;13.80;99.90;;;;;;5016198;28;20497;-62
2022/10/08 08:18:08;;;;;;;12.43;5.40;;;14.00;99.90;;;;;;5012199;28;20498;-60
2022/10/08 08:21:08;;;;;;;15.18;5.82;;;14.00;99.90;;;;;;5012981;28;20033;-61
2022/10/08 08:23:56;;;;;;;16.85;5.55;;;14.20;99.90;;;;;;5022750;28;20134;-60
2022/10/08 08:26:42;;;;;;;12.55;5.72;;;14.20;99.90;;;;;;5006013;28;20022;-62
2022/10/08 08:29:28;;;;;;;14.95;5.85;;;14.30;99.90;;;;;;4988404;28;20025;-59
2022/10/08 08:32:14;;;;;;;16.98;4.90;;;14.40;99.90;;;;;;5004846;28;20053;-61
2022/10/08 08:35:00;;;;;;;13.65;6.00;;;14.40;99.90;;;;;;5020988;28;20093;-58
2022/10/08 08:37:46;;;;;;;9.52;4.95;;;14.40;99.90;;;;;;5003212;28;20036;-60
2022/10/08 08:40:32;;;;;;;14.90;4.30;;;14.50;99.90;;;;;;5020346;28;20026;-60
2022/10/08 08:43:18;;;;;;;11.68;4.28;;;14.60;99.90;;;;;;5010088;28;20025;-62
2022/10/08 08:46:04;;;;;;;13.35;4.30;;;14.70;99.90;;;;;;5015283;28;20111;-62
2022/10/08 08:48:54;;;;;;;9.48;4.70;;;14.80;99.50;;;;;;5024545;28;20021;-58
2022/10/08 08:51:40;;;;;;;14.40;4.70;;;14.80;99.70;;;;;;5009988;28;20021;-62
2022/10/08 08:54:26;;;;;;;13.88;4.47;;;14.90;99.50;;;;;;5015349;28;20076;-60
2022/10/08 08:57:49;;;;;;;11.13;4.80;;;15.00;99.10;;;;;;5000957;28;20050;-63
2022/10/08 09:00:40;;;;;;;12.90;4.68;;;15.00;98.90;;;;;;5013988;28;20026;-60
2022/10/08 09:03:33;;;;;;;13.98;4.30;;;15.00;98.80;;;;;;5016202;28;20028;-62
2022/10/08 09:06:23;;;;;;;9.88;3.83;;;15.10;98.60;;;;;;5003317;28;20041;-63
2022/10/08 09:09:37;;;;;;;13.00;4.35;;;15.10;98.40;;;;;;5017456;28;20603;-59
2022/10/08 09:12:40;;;;;;;11.07;4.15;;;15.30;98.10;;;;;;5019349;28;20033;-59
2022/10/08 09:15:33;;;;;;;13.20;4.95;;;15.40;98.00;;;;;;5002956;28;20029;-60
2022/10/08 09:18:19;;;;;;;9.85;3.58;;;15.50;98.20;;;;;;5003371;28;20030;-60
2022/10/08 09:21:05;;;;;;;13.35;4.22;;;15.60;97.70;;;;;;5000424;28;20022;-60
2022/10/08 09:23:51;;;;;;;10.55;5.20;;;15.50;97.60;;;;;;5002593;28;20026;-60
2022/10/08 09:26:40;;;;;;;12.55;3.90;;;15.40;97.50;;;;;;5010818;28;20018;-60
2022/10/08 09:29:33;;;;;;;9.85;3.95;;;15.30;97.60;;;;;;5031235;28;20049;-60
2022/10/08 09:32:21;;;;;;;8.30;3.92;;;15.40;97.80;;;;;;5024225;28;20079;-59
2022/10/08 09:35:09;;;;;;;19.17;4.88;;;15.40;97.60;;;;;;5021938;28;20073;-58
2022/10/08 09:37:55;;;;;;;10.88;5.00;;;15.50;97.60;;;;;;5020827;28;20057;-61
2022/10/08 09:41:01;;;;;;;15.13;4.88;;;15.40;97.50;;;;;;5017626;28;20031;-59
2022/10/08 09:44:07;;;;;;;13.52;4.70;;;15.30;97.60;;;;;;5026732;28;20029;-58
2022/10/08 09:47:04;;;;;;;11.50;4.13;;;15.10;98.10;;;;;;5000456;28;20394;-59
2022/10/08 09:50:14;;;;;;;8.88;4.63;;;15.30;97.90;;;;;;4999395;28;20030;-57
2022/10/08 09:53:00;;;;;;;10.15;3.75;;;15.30;97.80;;;;;;5003399;28;20505;-61
2022/10/08 09:56:03;;;;;;;13.98;4.82;;;15.40;97.70;;;;;;5011438;28;20451;-59
2022/10/08 09:58:51;;;;;;;10.20;4.47;;;15.30;98.00;;;;;;4995519;28;20030;-60
2022/10/08 10:01:44;;;;;;;10.25;4.30;;;15.30;98.00;;;;;;4992859;28;20038;-61
2022/10/08 10:04:36;;;;;;;12.82;4.70;;;15.30;98.20;;;;;;4993927;28;20034;-62
2022/10/08 10:07:23;;;;;;;10.30;5.10;;;15.40;98.30;;;;;;4992258;28;20109;-59
2022/10/08 10:10:33;;;;;;;10.23;4.65;;;15.30;98.30;;;;;;4993463;28;20515;-61
2022/10/08 10:13:28;;;;;;;10.75;4.82;;;15.20;98.40;;;;;;4980651;28;20532;-61
2022/10/08 10:16:16;;;;;;;15.05;5.25;;;15.20;98.80;;;;;;4996793;28;20038;-61
2022/10/08 10:19:18;;;;;;;10.80;4.80;;;15.10;98.80;;;;;;4993298;28;20034;-60
2022/10/08 10:22:11;;;;;;;10.32;4.63;;;15.10;98.90;;;;;;4992629;28;20027;-59
2022/10/08 10:25:24;;;;;;;12.45;4.82;;;15.30;98.90;;;;;;4993681;28;20031;-62
2022/10/08 10:28:15;;;;;;;8.07;4.50;;;15.40;98.80;;;;;;4993161;28;20023;-60
2022/10/08 10:31:23;;;;;;;10.88;4.78;;;15.40;98.40;;;;;;4993095;28;20030;-63
2022/10/08 10:34:17;;;;;;;15.05;4.30;;;15.40;98.20;;;;;;4996249;28;20019;-62
2022/10/08 10:37:10;;;;;;;10.90;4.35;;;15.20;98.50;;;;;;4993294;28;20037;-60
2022/10/08 10:40:43;;;;;;;13.15;4.60;;;15.10;98.80;;;;;;4993515;28;20375;-60
2022/10/08 10:43:36;;;;;;;10.32;4.05;;;15.00;98.90;;;;;;4984862;28;20038;-61
2022/10/08 10:46:29;;;;;;;8.57;3.80;;;15.10;98.80;;;;;;4993113;28;20098;-61
2022/10/08 10:49:19;;;;;;;7.13;3.67;;;15.20;98.90;;;;;;4993930;28;20022;-63
2022/10/08 10:52:36;;;;;;;8.88;4.38;;;15.10;98.90;;;;;;4992782;28;20022;-61
2022/10/08 10:55:43;;;;;;;11.38;4.13;;;15.20;98.80;;;;;;4992142;28;20023;-61
2022/10/08 10:59:10;;;;;;;9.15;4.00;;;15.30;98.90;;;;;;4999849;28;20033;-60
2022/10/08 11:02:15;;;;;;;5.40;2.88;;;15.40;98.50;;;;;;4934711;29;20027;-60
2022/10/08 11:05:13;;;;;;;7.40;2.55;;;15.30;98.00;;;;;;4995304;28;20122;-59
2022/10/08 11:08:25;;;;;;;4.32;2.47;;;15.40;97.80;;;;;;4980093;28;20034;-60
2022/10/08 11:11:31;;;;;;;6.47;2.90;;;15.30;97.70;;;;;;4978941;28;20037;-61
2022/10/08 11:14:39;;;;;;;10.38;3.38;;;15.20;98.00;;;;;;4992745;28;20522;-58
2022/10/08 11:18:02;;;;;;;6.97;3.65;;;15.20;98.10;;;;;;4991584;28;20140;-61
2022/10/08 11:20:51;;;;;;;7.03;3.33;;;15.10;98.20;;;;;;4981889;28;20459;-60
2022/10/08 11:23:42;;;;;;;5.78;3.08;;;15.10;98.40;;;;;;4992608;28;20367;-60
2022/10/08 11:26:57;;;;;;;9.20;3.35;;;14.90;98.90;;;;;;4992371;28;20030;-57
2022/10/08 11:30:05;;;;;;;7.80;3.38;;;14.80;99.10;;;;;;4992401;28;20054;-58
2022/10/08 11:32:54;;;;;;;8.02;2.88;;;14.60;99.40;;;;;;4979148;28;20121;-61
2022/10/08 11:36:08;;;;;;;9.95;3.38;;;14.70;99.50;;;;;;4993130;28;20057;-61
2022/10/08 11:39:14;;;;;;;7.82;2.97;;;14.70;99.40;;;;;;4993953;28;20031;-59
2022/10/08 11:42:16;;;;;;;7.30;2.92;;;14.80;99.30;;;;;;4979402;28;20472;-61
2022/10/08 11:45:24;;;;;;;8.13;3.25;;;14.80;99.40;;;;;;4992063;28;20493;-60
2022/10/08 11:48:33;;;;;;;5.38;2.75;;;14.90;99.30;;;;;;4992568;28;20034;-60
2022/10/08 11:51:18;;;;;;;5.10;2.80;;;14.80;99.50;;;;;;4991973;28;20380;-60
2022/10/08 11:54:16;;;;;;;6.90;3.55;;;14.80;99.90;;;;;;4991605;28;20027;-61
2022/10/08 11:57:21;;;;;;;7.35;2.85;;;14.80;99.90;;;;;;4991650;28;20030;-58
2022/10/08 12:00:31;;;;;;;8.85;3.90;;;14.80;99.90;;;;;;4991876;28;20049;-62
2022/10/08 12:03:29;;;;;;;7.28;3.05;;;14.70;99.90;;;;;;4993231;28;20034;-58
2022/10/08 12:06:26;;;;;;;6.10;2.75;;;14.70;99.90;;;;;;4978061;28;20026;-62
2022/10/08 12:09:22;;;;;;;11.48;3.55;;;14.80;99.90;;;;;;4993930;28;20077;-62
2022/10/08 12:12:16;;;;;;;5.60;3.40;;;14.70;99.90;;;;;;4990950;28;20110;-60
2022/10/08 12:15:22;;;;;;;7.93;3.03;;;14.60;99.90;;;;;;4993585;28;20025;-61
2022/10/08 12:18:22;;;;;;;5.63;3.22;;;14.70;99.90;;;;;;4980576;28;20018;-60
2022/10/08 12:21:20;;;;;;;6.78;3.13;;;14.60;99.90;;;;;;4996147;28;20058;-58
2022/10/08 12:24:45;;;;;;;7.82;3.80;;;14.80;99.90;;;;;;4996511;28;20109;-62
2022/10/08 12:27:33;;;;;;;5.63;3.40;;;14.70;99.90;;;;;;4998487;28;20022;-55
2022/10/08 12:30:19;;;;;;;8.40;3.88;;;14.80;99.90;;;;;;5000720;28;20048;-60
2022/10/08 12:33:09;;;;;;;6.70;3.45;;;14.80;99.90;;;;;;5001456;28;20418;-59
2022/10/08 12:35:57;;;;;;;8.10;3.65;;;14.80;99.90;;;;;;4996973;28;20030;-59
2022/10/08 12:39:33;;;;;;;8.75;3.90;;;14.90;99.90;;;;;;4996318;28;20026;-60
2022/10/08 12:42:29;;;;;;;5.85;3.63;;;14.90;99.90;;;;;;4989701;28;20057;-59
2022/10/08 12:45:27;;;;;;;5.57;4.32;;;14.80;99.90;;;;;;4995266;28;20109;-60
2022/10/08 12:48:30;;;;;;;7.35;3.90;;;14.70;99.90;;;;;;4994338;28;20033;-60
2022/10/08 12:51:47;;;;;;;5.43;3.65;;;14.70;99.90;;;;;;4995978;28;20509;-59
2022/10/08 12:54:33;;;;;;;7.25;3.55;;;14.80;99.90;;;;;;4996180;28;20382;-60
2022/10/08 12:57:40;;;;;;;7.13;3.90;;;14.90;99.90;;;;;;4996685;28;20045;-58
2022/10/08 13:00:32;;;;;;;7.30;4.03;;;14.90;99.90;;;;;;4994866;28;20197;-60
2022/10/08 13:03:20;;;;;;;7.00;3.88;;;14.80;99.90;;;;;;4995662;28;20089;-60
2022/10/08 13:06:35;;;;;;;10.70;3.72;;;14.70;99.90;;;;;;4995111;28;20363;-58
2022/10/08 13:09:31;;;;;;;7.80;3.42;;;14.80;99.90;;;;;;4991503;28;20106;-60
2022/10/08 13:12:17;;;;;;;6.68;3.08;;;15.00;99.90;;;;;;4981169;28;20066;-60
2022/10/08 13:15:07;;;;;;;7.90;3.55;;;15.20;99.50;;;;;;4994404;28;20081;-60
2022/10/08 13:17:53;;;;;;;5.72;3.58;;;15.00;99.60;;;;;;4996159;28;20026;-60
2022/10/08 13:20:55;;;;;;;6.30;3.25;;;15.10;99.40;;;;;;4995774;28;20031;-59
2022/10/08 13:23:44;;;;;;;9.80;3.33;;;15.40;98.90;;;;;;4981319;28;20105;-60
2022/10/08 13:26:40;;;;;;;7.80;3.67;;;15.50;98.80;;;;;;4995092;28;20415;-59
2022/10/08 13:29:31;;;;;;;6.55;3.63;;;15.50;98.90;;;;;;4996304;28;20018;-58
2022/10/08 13:32:21;;;;;;;8.23;3.80;;;15.40;98.90;;;;;;4996649;28;20022;-61
2022/10/08 13:35:20;;;;;;;7.47;3.50;;;15.50;98.60;;;;;;4999089;28;20057;-61
2022/10/08 13:38:15;;;;;;;6.15;3.45;;;15.60;97.80;;;;;;5014676;28;20037;-59
2022/10/08 13:41:05;;;;;;;7.33;3.53;;;16.00;97.40;;;;;;5001326;28;20030;-59
2022/10/08 13:43:51;;;;;;;10.38;3.90;;;16.20;96.90;;;;;;5015324;28;20494;-59
2022/10/08 13:46:36;;;;;;;6.13;3.67;;;16.40;96.90;;;;;;5000604;28;20034;-61
2022/10/08 13:49:25;;;;;;;7.88;3.70;;;16.70;96.50;;;;;;4999959;28;20524;-60
2022/10/08 13:52:18;;;;;;;4.82;3.65;;;16.80;94.60;;;;;;5014033;28;20034;-59
2022/10/08 13:55:27;;;;;;;5.40;3.50;;;16.90;94.80;;;;;;5014456;28;20034;-61
2022/10/08 13:58:14;;;;;;;7.43;3.50;;;17.20;95.00;;;;;;5013340;28;20014;-60
2022/10/08 14:01:00;;;;;;;7.30;4.07;;;17.20;94.00;;;;;;5013596;28;20034;-59
2022/10/08 14:03:46;;;;;;;6.68;3.55;;;16.80;94.50;;;;;;5014308;28;20494;-59
2022/10/08 14:06:33;;;;;;;5.78;4.10;;;16.60;94.90;;;;;;4999919;28;20034;-60
2022/10/08 14:09:22;;;;;;;6.75;3.67;;;16.60;95.20;;;;;;5014714;28;20037;-60
2022/10/08 14:12:08;;;;;;;5.72;4.10;;;16.50;95.20;;;;;;5014648;28;20041;-59
2022/10/08 14:14:55;;;;;;;6.43;3.67;;;16.90;95.00;;;;;;5013607;28;20569;-64
2022/10/08 14:17:41;;;;;;;5.30;4.03;;;17.00;94.50;;;;;;5013794;28;20557;-60
2022/10/08 14:20:27;;;;;;;8.75;4.00;;;16.90;94.50;;;;;;4999470;28;20028;-58
2022/10/08 14:23:13;;;;;;;4.97;3.60;;;17.00;94.30;;;;;;4999491;28;20113;-62
2022/10/08 14:25:59;;;;;;;7.78;3.65;;;17.30;93.70;;;;;;4999646;28;20064;-60
2022/10/08 14:28:45;;;;;;;10.18;4.15;;;17.20;93.40;;;;;;5013938;28;20442;-60
2022/10/08 14:31:30;;;;;;;6.07;3.88;;;17.40;93.00;;;;;;5012626;28;20161;-61
2022/10/08 14:34:16;;;;;;;6.22;3.65;;;17.20;92.80;;;;;;5013925;28;20033;-61
2022/10/08 14:37:03;;;;;;;6.80;3.60;;;17.30;92.80;;;;;;5013299;28;20030;-60
2022/10/08 14:39:49;;;;;;;8.30;3.83;;;17.30;92.60;;;;;;4997913;28;20026;-60
2022/10/08 14:42:35;;;;;;;5.40;3.50;;;17.50;92.20;;;;;;5014453;28;20105;-59
2022/10/08 14:45:21;;;;;;;10.80;3.88;;;17.90;91.80;;;;;;4998261;28;20022;-59